Sweeney Granite Mountains, California Weather observations

Data are for 10 minute period ending at time listed.
 Day   Time   Solar   Ave.   Ave.  Ave.  Vector  Max.   Baro.   Total    
  of    of     Rad.   Air    Rel.  Wind   Wind   Wind  Press.  Precip.   
Year   Day            Temp.  Hum.  Speed  Dir.   Gust                    
2015   (PST)  Kw/m2    F      %     mph   deg.    mph    mb.     in.     
-------------------------------------------------------------------------
 183    0:00   0.00   71.8    61    0.8   257     1.7   871.3    0.00 
 183    0:10   0.00   72.7    58    1.5   161     3.9   871.3    0.00 
 183    0:20   0.00   73.5    56    0.6   274     2.4   871.5    0.00 
 183    0:30   0.00   72.2    60    2.0   311     3.9   871.5    0.00 
 183    0:40   0.00   73.0    57    1.6   350     2.9   871.3    0.00 
 183    0:50   0.00   72.8    57    0.1    26     1.5   871.2    0.00 
 183    1:00   0.00   73.5    55    0.6   122     1.5   871.2    0.00 
 183    1:10   0.00   73.2    60    2.6   132     4.1   871.3    0.00 
 183    1:20   0.00   72.8    59    2.2   122     2.9   871.2    0.00 
 183    1:30   0.00   73.6    56    1.7    98     2.3   871.2    0.00 
 183    1:40   0.00   73.8    54    1.7   114     2.2   871.3    0.00 
 183    1:50   0.00   72.7    59    1.3   292     3.4   871.3    0.00 
 183    2:00   0.00   72.4    59    2.2   297     2.9   871.3    0.00 
 183    2:10   0.00   72.7    59    2.3   294     3.6   871.3    0.00 
 183    2:20   0.00   72.9    58    3.0   280     3.7   871.3    0.00 
 183    2:30   0.00   72.8    59    2.2   289     2.8   871.3    0.00 
 183    2:40   0.00   71.2    65    2.7   289     3.2   871.2    0.00 
 183    2:50   0.00   71.8    63    1.4   282     2.1   871.1    0.00 
 183    3:00   0.00   71.6    62    0.2   265     1.3   871.0    0.00 
 183    3:10   0.00   72.4    59    0.1    47     1.3   871.1    0.00 
 183    3:20   0.00   72.7    57    1.1   116     1.5   871.2    0.00 
 183    3:30   0.00   72.3    60    0.6   160     1.8   871.3    0.00 
 183    3:40   0.00   71.7    62    2.5   295     3.6   871.4    0.00 
 183    3:50   0.00   71.7    62    1.1   286     2.6   871.4    0.00 
 183    4:00   0.00   71.4    63    1.4   305     2.0   871.4    0.00 
 183    4:10   0.00   72.0    61    1.4   315     1.8   871.5    0.00 
 183    4:20   0.00   72.0    60    0.9   316     1.8   871.5    0.00 
 183    4:30   0.00   71.7    64    0.5   135     2.6   871.6    0.00 
 183    4:40   0.00   71.6    61    1.9    94     2.8   871.6    0.00 
 183    4:50   0.01   71.8    61    1.1   111     2.2   871.7    0.00 
 183    5:00   0.02   71.0    63    2.7    92     4.1   871.8    0.00 
 183    5:10   0.03   71.5    62    1.1   120     2.3   871.9    0.00 
 183    5:20   0.04   71.7    63    0.5   248     3.1   871.9    0.00 
 183    5:30   0.06   72.8    58    0.4   121     1.5   872.1    0.00 
 183    5:40   0.06   73.5    57    1.4    92     2.5   872.1    0.00 
 183    5:50   0.08   73.8    57    0.5   100     2.3   872.1    0.00 
 183    6:00   0.09   74.4    57    2.1   275     4.0   872.1    0.00 
 183    6:10   0.11   74.3    59    2.6    99     4.1   872.2    0.00 
 183    6:20   0.13   74.6    58    2.9   100     4.2   872.3    0.00 
 183    6:30   0.16   74.9    57    2.6    91     3.9   872.4    0.00 
 183    6:40   0.20   75.7    55    1.1   100     2.5   872.4    0.00 
 183    6:50   0.24   76.7    50    4.0   297    10.7   872.4    0.00 
 183    7:00   0.29   77.1    47    7.1   303    12.2   872.4    0.00 
 183    7:10   0.31   77.6    46    6.9   301    12.1   872.4    0.00 
 183    7:20   0.32   78.6    44    5.2   274     8.6   872.6    0.00 
 183    7:30   0.32   78.8    43    5.6   287     8.7   872.6    0.00 
 183    7:40   0.42   79.5    43    3.7   280     8.8   872.6    0.00 
 183    7:50   0.49   81.3    43    0.6   151     3.0   872.6    0.00 
 183    8:00   0.51   81.0    44    3.8   105     7.0   872.6    0.00 
 183    8:10   100.00  99999.0   99999  99999.0   99999   99999.0   99999.0   99999.00 
 183    8:20   100.00  99999.0   99999  99999.0   99999   99999.0   99999.0   99999.00 
 183    8:30   100.00  99999.0   99999  99999.0   99999   99999.0   99999.0   99999.00 
 183    8:40   100.00  99999.0   99999  99999.0   99999   99999.0   99999.0   99999.00 
 183    8:50   100.00  99999.0   99999  99999.0   99999   99999.0   99999.0   99999.00 
 183    9:00   100.00  99999.0   99999  99999.0   99999   99999.0   99999.0   99999.00 
 183    9:10   100.00  99999.0   99999  99999.0   99999   99999.0   99999.0   99999.00 
 183    9:20   100.00  99999.0   99999  99999.0   99999   99999.0   99999.0   99999.00 
 183    9:30   100.00  99999.0   99999  99999.0   99999   99999.0   99999.0   99999.00 
 183    9:40   100.00  99999.0   99999  99999.0   99999   99999.0   99999.0   99999.00 
 183    9:50   100.00  99999.0   99999  99999.0   99999   99999.0   99999.0   99999.00 
 183   10:00   100.00  99999.0   99999  99999.0   99999   99999.0   99999.0   99999.00 
 183   10:10   100.00  99999.0   99999  99999.0   99999   99999.0   99999.0   99999.00 
 183   10:20   100.00  99999.0   99999  99999.0   99999   99999.0   99999.0   99999.00 
 183   10:30   100.00  99999.0   99999  99999.0   99999   99999.0   99999.0   99999.00 
 183   10:40   100.00  99999.0   99999  99999.0   99999   99999.0   99999.0   99999.00 
 183   10:50   100.00  99999.0   99999  99999.0   99999   99999.0   99999.0   99999.00 
 183   11:00   100.00  99999.0   99999  99999.0   99999   99999.0   99999.0   99999.00 
 183   11:10   100.00  99999.0   99999  99999.0   99999   99999.0   99999.0   99999.00 
 183   11:20   100.00  99999.0   99999  99999.0   99999   99999.0   99999.0   99999.00 
 183   11:30   100.00  99999.0   99999  99999.0   99999   99999.0   99999.0   99999.00 
 183   11:40   100.00  99999.0   99999  99999.0   99999   99999.0   99999.0   99999.00 
 183   11:50   100.00  99999.0   99999  99999.0   99999   99999.0   99999.0   99999.00 
 183   12:00   100.00  99999.0   99999  99999.0   99999   99999.0   99999.0   99999.00 
 183   12:10   100.00  99999.0   99999  99999.0   99999   99999.0   99999.0   99999.00 
 183   12:20   100.00  99999.0   99999  99999.0   99999   99999.0   99999.0   99999.00 
 183   12:30   100.00  99999.0   99999  99999.0   99999   99999.0   99999.0   99999.00 
 183   12:40   100.00  99999.0   99999  99999.0   99999   99999.0   99999.0   99999.00 
 183   12:50   100.00  99999.0   99999  99999.0   99999   99999.0   99999.0   99999.00 
 183   13:00   100.00  99999.0   99999  99999.0   99999   99999.0   99999.0   99999.00 
 183   13:10   100.00  99999.0   99999  99999.0   99999   99999.0   99999.0   99999.00 
 183   13:20   100.00  99999.0   99999  99999.0   99999   99999.0   99999.0   99999.00 
 183   13:30   100.00  99999.0   99999  99999.0   99999   99999.0   99999.0   99999.00 
 183   13:40   100.00  99999.0   99999  99999.0   99999   99999.0   99999.0   99999.00 
 183   13:50   100.00  99999.0   99999  99999.0   99999   99999.0   99999.0   99999.00 
 183   14:00   100.00  99999.0   99999  99999.0   99999   99999.0   99999.0   99999.00 
 183   14:10   100.00  99999.0   99999  99999.0   99999   99999.0   99999.0   99999.00 
 183   14:20   0.84   89.9    26    4.6   219    10.2   870.5    0.00 
 183   14:30   0.81   88.6    27    6.0   197    12.8   870.3    0.00 
 183   14:40   0.78   89.0    27    7.2   215    13.4   870.2    0.00 
 183   14:50   0.75   88.0    28    6.9   200    13.2   870.1    0.00 
 183   15:00   0.73   89.1    27    3.2   322     9.1   869.9    0.00 
 183   15:10   0.70   90.1    26    4.5   206    10.5   869.8    0.00 
 183   15:20   0.67   88.6    27    6.4   216    13.4   869.7    0.00 
 183   15:30   0.64   89.8    26    4.1   184    14.5   869.6    0.00 
 183   15:40   0.61   90.7    25    3.4   219     9.8   869.4    0.00 
 183   15:50   0.58   89.9    25    5.1   199    11.5   869.3    0.00 
 183   16:00   0.54   89.9    25    3.2   106     9.3   869.2    0.00 
 183   16:10   0.51   89.2    26    5.0   191    10.2   869.1    0.00 
 183   16:20   0.48   89.7    25    5.6   198    13.0   869.0    0.00 
 183   16:30   0.45   89.3    25    5.5   217    11.2   869.0    0.00 
 183   16:40   0.41   88.7    25    7.4   214    13.1   869.0    0.00 
 183   16:50   0.38   89.7    24    4.2   237     9.9   868.8    0.00 
 183   17:00   0.34   90.3    23    3.8   215     8.4   868.8    0.00 
 183   17:10   0.31   89.0    24    8.1   220    17.5   868.7    0.00 
 183   17:20   0.27   88.6    24    6.2   271    11.7   868.7    0.00 
 183   17:30   0.24   89.7    23    3.6   254     8.0   868.7    0.00 
 183   17:40   0.20   89.8    23    3.6   220     8.9   868.7    0.00 
 183   17:50   0.17   88.8    24    5.6   237    11.4   868.7    0.00 
 183   18:00   0.04   86.8    26    7.4   290    11.8   868.7    0.00 
 183   18:10   0.01   85.4    28    4.3   274     8.2   868.8    0.00 
 183   18:20   0.01   85.4    27    2.8   241     5.3   868.9    0.00 
 183   18:30   0.01   85.0    28    4.5   287     7.0   869.0    0.00 
 183   18:40   0.01   84.8    29    3.5   278     6.9   869.1    0.00 
 183   18:50   0.00   84.8    28    2.7   276     5.3   869.3    0.00 
 183   19:00   0.00   84.9    28    3.3   256     8.4   869.4    0.00 
 183   19:10   0.00   84.8    29    1.7   265     4.8   869.5    0.00 
 183   19:20   0.00   83.8    30    4.2   283     6.6   869.6    0.00 
 183   19:30   0.00   83.8    30    3.9   286     7.7   869.6    0.00 
 183   19:40   0.00   83.3    31    3.9   276     7.2   869.7    0.00 
 183   19:50   0.00   82.6    32    4.7   280     7.4   869.8    0.00 
 183   20:00   0.00   82.3    32    4.5   276     6.6   869.9    0.00 
 183   20:10   0.00   81.7    33    5.0   277     6.9   870.0    0.00 
 183   20:20   0.00   81.4    34    4.7   284     7.7   870.2    0.00 
 183   20:30   0.00   81.6    33    4.8   279     6.6   870.3    0.00 
 183   20:40   0.00   81.0    35    4.8   281     6.0   870.3    0.00 
 183   20:50   0.00   80.9    35    4.8   277     5.8   870.3    0.00 
 183   21:00   0.00   80.7    36    4.6   283     5.6   870.4    0.00 

Return to Sweeney Granite Mountains graphs page.


Western Regional Climate Center,wrcc@dri.edu